Time;durP1;ratioP1;P1;durP2;ratioP2;P2;SDS_P1;SDS_P2;PMS_P1;PMS_P2;Temp;Humidity;BMP_temperature;BMP_pressure;BME280_temperature;BME280_humidity;BME280_pressure;Samples;Min_cycle;Max_cycle;Signal;HPM_P1;HPM_P2
2021/09/18 00:00:13;;;;;;;14.00;8.17;;;;;;;;;;355243;150;857705;-60
2021/09/18 00:01:15;;;;;;;16.52;8.05;;;;;;;;;;355993;149;865694;-60
2021/09/18 00:02:16;;;;;;;15.24;8.32;;;;;;;;;;354940;149;858531;-60
2021/09/18 00:03:18;;;;;;;12.36;7.67;;;;;;;;;;355388;149;857682;-59
2021/09/18 00:04:19;;;;;;;12.46;7.89;;;;;;;;;;355041;150;856842;-60
2021/09/18 00:05:21;;;;;;;17.69;8.49;;;;;;;;;;353607;150;857334;-60
2021/09/18 00:06:24;;;;;;;11.39;7.57;;;;;;;;;;354928;148;858973;-61
2021/09/18 00:07:26;;;;;;;11.46;6.78;;;;;;;;;;354619;149;857268;-60
2021/09/18 00:08:27;;;;;;;14.27;7.36;;;;;;;;;;354580;148;865888;-61
2021/09/18 00:09:29;;;;;;;17.20;7.50;;;;;;;;;;355190;149;858951;-61
2021/09/18 00:10:31;;;;;;;16.74;8.12;;;;;;;;;;354068;150;857402;-61
2021/09/18 00:11:33;;;;;;;11.51;7.54;;;;;;;;;;354927;150;865563;-61
2021/09/18 00:12:35;;;;;;;16.66;8.03;;;;;;;;;;355024;150;858381;-61
2021/09/18 00:13:36;;;;;;;16.22;8.47;;;;;;;;;;347698;152;857372;-61
2021/09/18 00:14:39;;;;;;;14.39;8.04;;;;;;;;;;354582;150;857370;-61
2021/09/18 00:15:41;;;;;;;14.85;8.44;;;;;;;;;;356913;149;857370;-61
2021/09/18 00:16:44;;;;;;;17.19;8.03;;;;;;;;;;346457;153;857288;-61
2021/09/18 00:17:46;;;;;;;14.30;8.26;;;;;;;;;;341556;155;858883;-61
2021/09/18 00:18:47;;;;;;;13.32;8.31;;;;;;;;;;345470;153;865053;-61
2021/09/18 00:19:49;;;;;;;16.79;8.28;;;;;;;;;;345187;152;857407;-61
2021/09/18 00:20:50;;;;;;;12.85;7.95;;;;;;;;;;345322;154;859037;-61
2021/09/18 00:21:52;;;;;;;13.99;7.96;;;;;;;;;;346667;153;865913;-61
2021/09/18 00:22:53;;;;;;;13.90;8.07;;;;;;;;;;347081;153;858987;-61
2021/09/18 00:23:55;;;;;;;10.29;7.28;;;;;;;;;;347647;154;858251;-61
2021/09/18 00:24:57;;;;;;;16.33;8.26;;;;;;;;;;346032;154;857741;-60
2021/09/18 00:25:58;;;;;;;15.36;8.15;;;;;;;;;;347067;153;857383;-61
2021/09/18 00:27:02;;;;;;;14.48;8.71;;;;;;;;;;346521;155;857416;-61
2021/09/18 00:28:04;;;;;;;15.45;8.36;;;;;;;;;;347770;152;859114;-61
2021/09/18 00:29:05;;;;;;;10.22;7.30;;;;;;;;;;346063;152;857486;-61
2021/09/18 00:30:08;;;;;;;15.68;8.82;;;;;;;;;;347080;152;859107;-60
2021/09/18 00:31:10;;;;;;;12.64;8.15;;;;;;;;;;346354;154;857981;-60
2021/09/18 00:32:11;;;;;;;16.21;8.86;;;;;;;;;;345409;154;863670;-60
2021/09/18 00:33:13;;;;;;;11.90;8.07;;;;;;;;;;345979;153;856323;-60
2021/09/18 00:34:14;;;;;;;11.68;8.46;;;;;;;;;;345336;155;856167;-60
2021/09/18 00:35:16;;;;;;;17.49;8.46;;;;;;;;;;347097;155;856366;-60
2021/09/18 00:36:18;;;;;;;16.22;8.57;;;;;;;;;;346339;155;856197;-60
2021/09/18 00:37:19;;;;;;;14.19;9.19;;;;;;;;;;345613;153;856129;-60
2021/09/18 00:38:21;;;;;;;14.27;7.84;;;;;;;;;;345236;154;856272;-60
2021/09/18 00:39:22;;;;;;;14.83;8.07;;;;;;;;;;346377;155;856292;-60
2021/09/18 00:40:24;;;;;;;13.31;8.40;;;;;;;;;;345165;153;856278;-60
2021/09/18 00:41:26;;;;;;;11.05;8.31;;;;;;;;;;347493;151;863717;-60
2021/09/18 00:42:27;;;;;;;11.80;7.91;;;;;;;;;;344237;154;863823;-60
2021/09/18 00:43:29;;;;;;;15.21;8.38;;;;;;;;;;348403;153;856306;-60
2021/09/18 00:44:30;;;;;;;12.82;8.98;;;;;;;;;;355468;150;856135;-60
2021/09/18 00:45:32;;;;;;;13.99;9.14;;;;;;;;;;354554;150;856098;-60
2021/09/18 00:46:34;;;;;;;12.15;8.87;;;;;;;;;;348486;151;856552;-60
2021/09/18 00:50:06;;;;;;;13.37;7.87;;;;;;;18.99;74.40;98725.39;375499;141;882016;-60
2021/09/18 00:51:08;;;;;;;10.41;6.19;;;;;;;18.88;74.73;98717.31;370481;144;858662;-61
2021/09/18 00:52:10;;;;;;;9.10;5.17;;;;;;;18.88;74.73;98717.31;366340;144;864976;-60
2021/09/18 00:53:11;;;;;;;9.69;4.94;;;;;;;18.92;74.11;98724.05;372065;144;864829;-61
2021/09/18 00:54:14;;;;;;;9.20;5.30;;;;;;;18.89;74.30;98721.63;367960;144;864943;-61
2021/09/18 00:55:16;;;;;;;10.38;5.08;;;;;;;18.90;74.45;98723.30;366916;144;864830;-60
2021/09/18 00:56:18;;;;;;;8.69;4.65;;;;;;;;;;367238;144;857168;-61
2021/09/18 00:57:20;;;;;;;10.95;4.69;;;;;;;;;;371145;144;858860;-60
2021/09/18 00:58:21;;;;;;;7.46;5.20;;;;;;;;;;367065;144;858354;-60
2021/09/18 00:59:23;;;;;;;9.80;5.24;;;;;;;;;;367844;144;857288;-60
2021/09/18 01:00:26;;;;;;;15.61;6.17;;;;;;;;;;366164;144;857197;-60
2021/09/18 01:01:28;;;;;;;11.23;5.79;;;;;;;;;;367966;144;857486;-60
2021/09/18 01:02:30;;;;;;;11.84;6.22;;;;;;;;;;368489;144;865152;-60
2021/09/18 01:03:31;;;;;;;14.33;6.35;;;;;;;;;;367416;144;857304;-61
2021/09/18 01:04:33;;;;;;;13.51;6.72;;;;;;;;;;366008;144;857358;-61
2021/09/18 01:05:35;;;;;;;15.98;7.25;;;;;;;;;;365638;144;857232;-61
2021/09/18 01:06:37;;;;;;;12.54;7.24;;;;;;;;;;366355;144;857398;-61
2021/09/18 01:07:39;;;;;;;10.62;7.64;;;;;;;;;;366719;144;857228;-61
2021/09/18 01:08:41;;;;;;;14.26;7.79;;;;;;;;;;367724;144;857350;-60
2021/09/18 01:09:43;;;;;;;13.29;7.29;;;;;;;;;;367260;144;865224;-61
2021/09/18 01:10:46;;;;;;;14.26;8.18;;;;;;;;;;368204;144;858973;-61
2021/09/18 01:11:47;;;;;;;15.41;7.59;;;;;;;;;;367703;144;857313;-61
2021/09/18 01:12:59;;;;;;;15.88;8.04;;;;;;;;;;366602;144;856227;-61
2021/09/18 01:14:01;;;;;;;13.02;7.29;;;;;;;;;;368227;144;858781;-61
2021/09/18 01:15:02;;;;;;;12.82;7.50;;;;;;;;;;372121;144;858679;-60
2021/09/18 01:29:39;;;;;;;15.24;8.00;;;;;;;18.96;74.29;98681.81;371513;142;882680;-61
2021/09/18 01:30:42;;;;;;;10.54;6.75;;;;;;;18.86;74.44;98685.95;362441;145;857249;-60
2021/09/18 01:31:45;;;;;;;9.60;5.97;;;;;;;18.83;74.50;98686.97;364350;145;857279;-60
2021/09/18 01:32:47;;;;;;;12.88;5.06;;;;;;;18.84;74.56;98685.21;362104;145;865179;-60
2021/09/18 01:33:50;;;;;;;10.18;5.29;;;;;;;18.87;74.51;98685.02;363229;145;857315;-61
2021/09/18 01:34:51;;;;;;;11.15;5.06;;;;;;;18.91;74.43;98683.89;363130;145;857423;-60
2021/09/18 01:35:53;;;;;;;9.79;5.11;;;;;;;;;;363605;145;859234;-61
2021/09/18 01:36:56;;;;;;;8.09;5.45;;;;;;;;;;364573;147;864761;-62
2021/09/18 01:37:58;;;;;;;10.66;5.30;;;;;;;;;;363732;146;860168;-62
2021/09/18 01:39:00;;;;;;;12.01;5.82;;;;;;;;;;363490;144;857397;-60
2021/09/18 01:40:02;;;;;;;12.64;6.31;;;;;;;;;;365076;144;857287;-60
2021/09/18 01:41:03;;;;;;;12.41;6.66;;;;;;;;;;363810;145;857327;-60
2021/09/18 01:42:05;;;;;;;14.69;6.61;;;;;;;;;;361973;145;857420;-62
2021/09/18 01:43:07;;;;;;;12.47;6.71;;;;;;;;;;361283;145;857410;-63
2021/09/18 01:44:08;;;;;;;15.96;6.96;;;;;;;;;;361234;147;857766;-62
2021/09/18 01:45:11;;;;;;;15.01;7.43;;;;;;;;;;363891;146;859227;-62
2021/09/18 01:46:14;;;;;;;13.78;7.67;;;;;;;;;;364268;145;859144;-63
2021/09/18 01:47:15;;;;;;;13.39;8.08;;;;;;;;;;364286;147;859432;-63
2021/09/18 01:48:17;;;;;;;18.96;8.92;;;;;;;;;;362638;144;857161;-61
2021/09/18 01:49:19;;;;;;;11.26;8.01;;;;;;;;;;361765;144;857109;-60
2021/09/18 01:50:22;;;;;;;17.02;8.41;;;;;;;;;;364349;145;857143;-60
2021/09/18 01:51:27;;;;;;;15.16;8.28;;;;;;;;;;364346;147;856624;-60
2021/09/18 01:52:34;;;;;;;15.69;8.58;;;;;;;;;;360925;145;857355;-60
2021/09/18 01:53:34;;;;;;;15.31;8.85;;;;;;;;;;362919;145;857239;-61
2021/09/18 01:54:37;;;;;;;14.16;8.66;;;;;;;;;;363987;147;857273;-61
2021/09/18 01:55:38;;;;;;;16.29;9.59;;;;;;;;;;365720;145;858631;-61
2021/09/18 01:56:41;;;;;;;14.81;9.17;;;;;;;;;;361980;145;858957;-60
2021/09/18 01:57:46;;;;;;;14.17;8.96;;;;;;;;;;362044;147;857836;-61
2021/09/18 01:58:49;;;;;;;12.82;8.63;;;;;;;;;;360131;147;858142;-62
2021/09/18 01:59:51;;;;;;;20.28;9.16;;;;;;;;;;363623;144;860537;-62
2021/09/18 02:00:56;;;;;;;14.93;9.04;;;;;;;;;;362954;145;858609;-62
2021/09/18 02:01:58;;;;;;;19.68;9.16;;;;;;;;;;365244;147;864890;-62
2021/09/18 02:02:59;;;;;;;16.61;9.63;;;;;;;;;;364750;145;857371;-62
2021/09/18 02:04:01;;;;;;;15.24;9.12;;;;;;;;;;361859;145;866458;-61
2021/09/18 02:05:22;;;;;;;18.99;10.29;;;;;;;;;;365158;147;858602;-62
2021/09/18 02:06:25;;;;;;;13.08;9.29;;;;;;;;;;339425;156;860627;-60
2021/09/18 02:07:27;;;;;;;14.36;9.77;;;;;;;;;;337273;155;857750;-61
2021/09/18 02:08:29;;;;;;;18.56;9.19;;;;;;;;;;333736;159;864959;-61
2021/09/18 02:09:30;;;;;;;17.09;9.55;;;;;;;;;;334209;159;857292;-61
2021/09/18 02:10:32;;;;;;;17.45;10.56;;;;;;;;;;332633;159;857735;-61
2021/09/18 02:11:34;;;;;;;19.49;10.08;;;;;;;;;;333213;158;857620;-61
2021/09/18 02:12:35;;;;;;;20.11;10.33;;;;;;;;;;333199;160;864467;-61
2021/09/18 02:13:37;;;;;;;16.41;10.04;;;;;;;;;;332918;160;857470;-61
2021/09/18 02:14:38;;;;;;;15.06;9.65;;;;;;;;;;333097;158;859933;-61
2021/09/18 02:15:40;;;;;;;16.18;10.76;;;;;;;;;;333989;159;859793;-61
2021/09/18 02:16:43;;;;;;;21.43;10.34;;;;;;;;;;334073;159;857295;-61
2021/09/18 02:17:44;;;;;;;12.66;9.46;;;;;;;;;;332368;158;864591;-59
2021/09/18 02:18:46;;;;;;;16.86;9.61;;;;;;;;;;333475;159;857363;-60
2021/09/18 02:19:47;;;;;;;18.29;11.09;;;;;;;;;;333127;160;857336;-61
2021/09/18 02:20:49;;;;;;;15.67;10.06;;;;;;;;;;334186;158;857388;-61
2021/09/18 02:21:51;;;;;;;17.01;9.81;;;;;;;;;;333139;158;857182;-61
2021/09/18 02:22:52;;;;;;;18.06;9.88;;;;;;;;;;334017;160;865001;-61
2021/09/18 02:23:54;;;;;;;14.24;10.03;;;;;;;;;;327079;164;859141;-61
2021/09/18 02:24:56;;;;;;;18.76;10.31;;;;;;;;;;332951;156;858982;-61
2021/09/18 02:25:57;;;;;;;12.41;9.69;;;;;;;;;;333047;160;860564;-61
2021/09/18 02:27:00;;;;;;;16.86;10.27;;;;;;;;;;332003;158;858722;-61
2021/09/18 02:28:02;;;;;;;16.20;10.53;;;;;;;;;;332855;159;856544;-60
2021/09/18 02:29:03;;;;;;;17.67;10.51;;;;;;;;;;334139;158;861217;-60
2021/09/18 02:30:06;;;;;;;17.88;10.32;;;;;;;;;;334816;160;865120;-62
2021/09/18 02:31:08;;;;;;;16.46;10.34;;;;;;;;;;333057;159;856749;-61
2021/09/18 02:32:10;;;;;;;16.89;10.36;;;;;;;;;;332654;159;857314;-60
2021/09/18 02:33:11;;;;;;;19.19;10.19;;;;;;;;;;332890;159;857426;-61
2021/09/18 02:34:13;;;;;;;14.84;10.19;;;;;;;;;;333119;160;858573;-61
2021/09/18 02:35:15;;;;;;;15.35;9.95;;;;;;;;;;332410;158;857227;-61
2021/09/18 02:36:17;;;;;;;19.66;10.81;;;;;;;;;;328152;160;857205;-61
2021/09/18 02:37:20;;;;;;;19.95;10.99;;;;;;;;;;333054;160;864481;-61
2021/09/18 02:38:22;;;;;;;15.77;10.45;;;;;;;;;;335167;159;859053;-61
2021/09/18 02:39:23;;;;;;;15.43;10.35;;;;;;;;;;332957;158;866579;-60
2021/09/18 02:40:27;;;;;;;16.20;10.25;;;;;;;;;;333025;158;857220;-61
2021/09/18 02:41:28;;;;;;;15.08;10.38;;;;;;;;;;333018;159;857339;-61
2021/09/18 02:42:30;;;;;;;17.26;10.46;;;;;;;;;;332848;160;866853;-61
2021/09/18 02:43:32;;;;;;;19.16;10.64;;;;;;;;;;333780;158;859237;-61
2021/09/18 02:44:33;;;;;;;16.92;11.11;;;;;;;;;;326184;163;866050;-60
2021/09/18 02:45:35;;;;;;;17.11;10.87;;;;;;;;;;328207;161;859366;-60
2021/09/18 02:46:41;;;;;;;16.32;10.83;;;;;;;;;;332809;159;865725;-61
2021/09/18 02:47:43;;;;;;;15.46;10.84;;;;;;;;;;332709;158;857321;-61
2021/09/18 02:48:44;;;;;;;17.57;10.41;;;;;;;;;;333680;160;858893;-60
2021/09/18 02:49:46;;;;;;;16.17;10.53;;;;;;;;;;333148;159;865044;-61
2021/09/18 02:50:49;;;;;;;18.66;11.34;;;;;;;;;;334108;159;859412;-61
2021/09/18 02:51:51;;;;;;;15.18;11.06;;;;;;;;;;334279;160;864609;-61
2021/09/18 02:52:53;;;;;;;16.18;10.76;;;;;;;;;;332947;161;858472;-61
2021/09/18 02:53:54;;;;;;;19.97;11.24;;;;;;;;;;334177;159;866750;-61
2021/09/18 02:54:56;;;;;;;20.10;11.21;;;;;;;;;;333425;158;859066;-61
2021/09/18 02:55:59;;;;;;;18.53;10.45;;;;;;;;;;333958;160;859170;-61
2021/09/18 02:57:01;;;;;;;15.95;10.80;;;;;;;;;;332886;160;859135;-60
2021/09/18 02:58:03;;;;;;;18.56;11.21;;;;;;;;;;333708;158;857774;-60
2021/09/18 02:59:04;;;;;;;18.99;10.91;;;;;;;;;;333358;160;857802;-61
2021/09/18 03:00:07;;;;;;;16.36;11.77;;;;;;;;;;334379;159;866571;-60
2021/09/18 03:01:09;;;;;;;18.84;11.43;;;;;;;;;;332111;159;857553;-61
2021/09/18 03:02:10;;;;;;;20.63;11.55;;;;;;;;;;332633;159;857979;-61
2021/09/18 03:03:12;;;;;;;17.46;11.22;;;;;;;;;;333165;159;857191;-60
2021/09/18 03:04:13;;;;;;;20.06;11.20;;;;;;;;;;332382;159;857166;-61
2021/09/18 03:05:15;;;;;;;17.53;11.35;;;;;;;;;;332038;160;857216;-61
2021/09/18 03:06:17;;;;;;;15.57;10.42;;;;;;;;;;331829;160;857360;-60
2021/09/18 03:07:18;;;;;;;15.74;11.55;;;;;;;;;;332916;160;857378;-61
2021/09/18 03:08:20;;;;;;;16.32;10.63;;;;;;;;;;332443;160;859132;-61
2021/09/18 03:09:21;;;;;;;17.69;11.38;;;;;;;;;;333749;159;858083;-61
2021/09/18 03:10:23;;;;;;;16.71;10.95;;;;;;;;;;330564;162;857982;-61
2021/09/18 03:11:25;;;;;;;13.47;10.61;;;;;;;;;;331863;161;857591;-61
2021/09/18 03:12:27;;;;;;;14.31;10.68;;;;;;;18.71;100.00;112913.89;331535;159;856863;-61
2021/09/18 03:13:28;;;;;;;11.27;7.59;;;;;;;;;;332975;160;858941;-60
2021/09/18 03:14:30;;;;;;;16.66;8.61;;;;;;;;;;331942;160;864393;-61
2021/09/18 03:15:31;;;;;;;15.06;8.86;;;;;;;;;;331624;160;857759;-61
2021/09/18 03:16:34;;;;;;;14.81;9.45;;;;;;;;;;330602;160;857550;-61
2021/09/18 03:17:36;;;;;;;14.64;10.08;;;;;;;;;;331979;161;867127;-60
2021/09/18 03:18:37;;;;;;;16.14;10.29;;;;;;;;;;331144;161;861178;-61
2021/09/18 03:19:39;;;;;;;13.19;9.94;;;;;;;;;;330370;159;857608;-60
2021/09/18 03:20:42;;;;;;;14.76;10.14;;;;;;;;;;331682;160;857370;-61
2021/09/18 03:21:44;;;;;;;16.55;10.05;;;;;;;;;;331879;161;858616;-60
2021/09/18 03:22:45;;;;;;;17.59;10.66;;;;;;;;;;330942;159;857327;-60
2021/09/18 03:23:47;;;;;;;14.16;10.61;;;;;;;;;;331819;160;857291;-60
2021/09/18 03:24:49;;;;;;;12.81;10.47;;;;;;;;;;331708;161;864991;-59
2021/09/18 03:25:50;;;;;;;16.71;10.89;;;;;;;;;;330369;162;865886;-59
2021/09/18 03:26:52;;;;;;;16.49;11.87;;;;;;;;;;330818;157;866042;-60
2021/09/18 03:27:54;;;;;;;19.44;10.82;;;;;;;;;;331121;158;860031;-60
2021/09/18 03:28:56;;;;;;;19.76;11.93;;;;;;;;;;331075;160;858306;-60
2021/09/18 03:29:57;;;;;;;19.34;11.01;;;;;;;;;;330299;160;857387;-59
2021/09/18 03:31:01;;;;;;;17.69;11.92;;;;;;;;;;329842;159;864977;-61
2021/09/18 03:32:04;;;;;;;18.86;11.76;;;;;;;;;;330840;160;859250;-60
2021/09/18 03:33:05;;;;;;;17.89;11.29;;;;;;;;;;324599;164;859613;-60
2021/09/18 03:34:07;;;;;;;20.61;10.66;;;;;;;;;;323533;162;856656;-60
2021/09/18 03:35:09;;;;;;;14.20;11.36;;;;;;;;;;325070;163;859351;-59
2021/09/18 03:36:12;;;;;;;17.30;11.80;;;;;;;;;;318856;167;858784;-59
2021/09/18 03:37:13;;;;;;;17.93;11.51;;;;;;;;;;324763;162;857659;-60
2021/09/18 03:38:15;;;;;;;21.95;11.46;;;;;;;;;;325099;162;865130;-59
2021/09/18 03:39:16;;;;;;;16.64;11.85;;;;;;;;;;325703;163;857388;-60
2021/09/18 03:40:18;;;;;;;17.51;10.45;;;;;;;;;;319390;166;859800;-61
2021/09/18 03:41:20;;;;;;;19.40;11.90;;;;;;;;;;324296;163;856702;-61
2021/09/18 03:42:21;;;;;;;19.35;12.07;;;;;;;;;;320790;166;858585;-61
2021/09/18 03:43:23;;;;;;;20.66;11.97;;;;;;;;;;327144;163;856338;-61
2021/09/18 03:44:24;;;;;;;21.76;12.09;;;;;;;;;;326498;162;856734;-61
2021/09/18 03:45:26;;;;;;;20.62;11.46;;;;;;;;;;324836;162;856477;-61
2021/09/18 03:46:28;;;;;;;24.37;12.14;;;;;;;;;;324603;163;858231;-60
2021/09/18 03:47:30;;;;;;;17.67;10.76;;;;;;;;;;326106;165;858549;-61
2021/09/18 03:48:31;;;;;;;17.73;11.75;;;;;;;;;;326195;161;860305;-60
2021/09/18 03:49:33;;;;;;;15.86;11.99;;;;;;;;;;323438;163;858307;-61
2021/09/18 03:50:35;;;;;;;22.61;13.18;;;;;;;;;;325125;164;857223;-61
2021/09/18 03:51:37;;;;;;;18.51;12.93;;;;;;;;;;327078;163;858368;-61
2021/09/18 03:52:38;;;;;;;18.48;12.50;;;;;;;;;;324409;160;857449;-61
2021/09/18 03:53:40;;;;;;;18.64;13.15;;;;;;;;;;324799;164;857436;-61
2021/09/18 03:54:41;;;;;;;17.69;12.65;;;;;;;;;;326014;164;857409;-61
2021/09/18 03:55:43;;;;;;;14.49;11.66;;;;;;;;;;325095;162;857272;-60
2021/09/18 03:56:45;;;;;;;18.91;11.94;;;;;;;;;;319787;164;857359;-60
2021/09/18 03:57:47;;;;;;;18.24;13.06;;;;;;;;;;319421;167;857738;-62
2021/09/18 03:58:49;;;;;;;17.46;11.66;;;;;;;;;;326202;163;859594;-62
2021/09/18 03:59:50;;;;;;;18.91;13.01;;;;;;;;;;330312;159;859133;-60
2021/09/18 04:00:53;;;;;;;21.09;12.19;;;;;;;;;;331767;160;857635;-61
2021/09/18 04:01:54;;;;;;;16.89;11.90;;;;;;;;;;331919;160;857720;-60
2021/09/18 04:02:56;;;;;;;18.39;12.27;;;;;;;;;;330417;159;865296;-60
2021/09/18 04:03:59;;;;;;;21.49;12.91;;;;;;;;;;325737;163;858748;-61
2021/09/18 04:05:01;;;;;;;21.02;12.68;;;;;;;;;;323031;164;865772;-63
2021/09/18 04:06:02;;;;;;;17.71;12.26;;;;;;;;;;317999;168;859121;-60
2021/09/18 04:07:04;;;;;;;20.55;12.55;;;;;;;;;;321746;163;866117;-61
2021/09/18 04:08:06;;;;;;;20.85;12.30;;;;;;;;;;317492;165;864987;-61
2021/09/18 04:09:08;;;;;;;15.87;11.83;;;;;;;;;;323063;163;856584;-62
2021/09/18 04:10:11;;;;;;;20.19;12.02;;;;;;;;;;322583;163;868601;-63
2021/09/18 04:11:12;;;;;;;19.42;12.31;;;;;;;;;;322102;164;857331;-60
2021/09/18 04:12:14;;;;;;;20.71;12.64;;;;;;;;;;321559;165;866480;-62
2021/09/18 04:13:15;;;;;;;16.18;11.93;;;;;;;;;;320153;163;857136;-61
2021/09/18 04:14:18;;;;;;;16.15;12.26;;;;;;;;;;323213;165;866597;-59
2021/09/18 04:15:20;;;;;;;18.13;12.42;;;;;;;;;;323552;165;857342;-60
2021/09/18 04:16:22;;;;;;;21.50;12.21;;;;;;;;;;319774;166;858256;-60
2021/09/18 04:17:24;;;;;;;19.66;12.62;;;;;;;;;;319649;163;867668;-61
2021/09/18 04:18:26;;;;;;;18.38;12.81;;;;;;;;;;318977;166;857560;-60
2021/09/18 04:19:27;;;;;;;18.56;11.96;;;;;;;;;;315402;168;859375;-61
2021/09/18 04:20:30;;;;;;;23.45;12.72;;;;;;;;;;318466;167;863927;-61
2021/09/18 04:21:32;;;;;;;18.36;12.17;;;;;;;;;;321692;165;858360;-60
2021/09/18 04:22:33;;;;;;;20.54;12.56;;;;;;;;;;323825;165;858545;-61
2021/09/18 04:23:35;;;;;;;16.63;12.62;;;;;;;;;;323680;163;857259;-62
2021/09/18 04:24:36;;;;;;;20.62;12.09;;;;;;;;;;320698;163;857397;-62
2021/09/18 04:25:38;;;;;;;17.46;12.52;;;;;;;;;;318242;165;857453;-63
2021/09/18 04:26:41;;;;;;;23.21;12.41;;;;;;;;;;322250;165;866300;-61
2021/09/18 04:27:43;;;;;;;16.74;11.83;;;;;;;;;;318144;166;859816;-62
2021/09/18 04:28:44;;;;;;;17.55;11.52;;;;;;;;;;322759;163;856513;-63
2021/09/18 04:29:46;;;;;;;17.45;11.62;;;;;;;;;;322467;163;857301;-63
2021/09/18 04:30:49;;;;;;;19.52;12.16;;;;;;;;;;321815;165;857259;-67
2021/09/18 04:31:51;;;;;;;15.11;11.32;;;;;;;;;;321951;163;860389;-67
2021/09/18 04:32:53;;;;;;;17.86;12.47;;;;;;;;;;317789;165;857220;-65
2021/09/18 04:33:54;;;;;;;24.66;12.61;;;;;;;;;;319660;165;861243;-63
2021/09/18 04:34:56;;;;;;;15.60;10.32;;;;;;;;;;320567;168;858744;-64
2021/09/18 04:35:57;;;;;;;18.81;12.51;;;;;;;;;;319100;165;858778;-63
2021/09/18 04:37:00;;;;;;;16.63;10.78;;;;;;;;;;320244;167;858388;-65
2021/09/18 04:38:01;;;;;;;19.99;12.36;;;;;;;;;;321538;166;859085;-66
2021/09/18 04:39:03;;;;;;;20.35;11.43;;;;;;;;;;320627;165;857393;-64
2021/09/18 04:40:06;;;;;;;19.85;13.16;;;;;;;;;;320146;165;857459;-65
2021/09/18 04:41:08;;;;;;;18.45;11.91;;;;;;;;;;321786;166;856642;-65
2021/09/18 04:42:10;;;;;;;20.09;12.71;;;;;;;;;;320210;167;858002;-66
2021/09/18 04:43:11;;;;;;;19.21;12.74;;;;;;;;;;320515;165;859363;-64
2021/09/18 04:44:13;;;;;;;20.14;12.36;;;;;;;;;;320578;166;857351;-63
2021/09/18 04:45:14;;;;;;;18.62;12.14;;;;;;;;;;319677;166;857299;-63
2021/09/18 04:46:17;;;;;;;18.41;11.40;;;;;;;;;;319334;165;857370;-65
2021/09/18 04:47:19;;;;;;;16.67;12.19;;;;;;;;;;320542;165;864788;-64
2021/09/18 04:48:20;;;;;;;16.59;12.19;;;;;;;;;;321447;166;857824;-64
2021/09/18 04:49:22;;;;;;;16.40;13.01;;;;;;;;;;328609;161;857782;-64
2021/09/18 04:50:24;;;;;;;19.85;12.09;;;;;;;;;;325479;161;865703;-62
2021/09/18 04:51:26;;;;;;;17.34;11.59;;;;;;;;;;328015;161;859095;-62
2021/09/18 04:52:27;;;;;;;16.49;12.19;;;;;;;;;;325869;164;857340;-63
2021/09/18 04:53:29;;;;;;;21.91;12.16;;;;;;;;;;327011;162;857442;-62
2021/09/18 04:54:30;;;;;;;17.98;12.28;;;;;;;;;;325685;161;857415;-64
2021/09/18 04:55:32;;;;;;;18.99;11.79;;;;;;;;;;329607;161;857350;-63
2021/09/18 04:56:34;;;;;;;16.06;12.35;;;;;;;;;;327624;161;864742;-64
2021/09/18 04:57:36;;;;;;;16.33;11.81;;;;;;;;;;326740;161;857325;-64
2021/09/18 04:58:37;;;;;;;15.84;12.43;;;;;;;;;;328795;161;857413;-61
2021/09/18 04:59:39;;;;;;;15.59;11.62;;;;;;;-147.14;100.00;112913.77;326804;161;859122;-64
2021/09/18 05:00:41;;;;;;;14.69;9.03;;;;;;;;;;327925;163;859346;-65
2021/09/18 05:01:43;;;;;;;15.02;8.83;;;;;;;;;;327218;161;857246;-63
2021/09/18 05:02:44;;;;;;;14.24;9.49;;;;;;;;;;328072;164;864863;-64
2021/09/18 05:03:46;;;;;;;15.05;8.82;;;;;;;;;;324024;166;861510;-64
2021/09/18 05:04:48;;;;;;;15.43;10.01;;;;;;;;;;317828;166;858375;-63
2021/09/18 05:05:49;;;;;;;15.25;10.02;;;;;;;;;;320982;164;857330;-63
2021/09/18 05:06:51;;;;;;;14.68;10.99;;;;;;;;;;323327;163;865359;-66
2021/09/18 05:07:53;;;;;;;20.89;11.16;;;;;;;;;;322052;165;865807;-65
2021/09/18 05:08:54;;;;;;;18.06;11.10;;;;;;;;;;331140;159;858714;-62
2021/09/18 05:09:57;;;;;;;16.47;11.72;;;;;;;;;;332663;160;859588;-64
2021/09/18 05:10:59;;;;;;;16.99;11.83;;;;;;;;;;331969;159;857604;-67
2021/09/18 05:12:01;;;;;;;16.19;11.59;;;;;;;;;;331567;160;859689;-65
2021/09/18 05:13:03;;;;;;;13.89;11.92;;;;;;;;;;332383;159;865487;-66
2021/09/18 05:14:04;;;;;;;18.25;11.69;;;;;;;;;;331790;159;858905;-62
2021/09/18 05:15:06;;;;;;;17.58;11.99;;;;;;;;;;331146;159;857476;-64
2021/09/18 05:16:08;;;;;;;19.47;12.37;;;;;;;;;;332060;159;856618;-65
2021/09/18 05:17:10;;;;;;;16.59;11.51;;;;;;;;;;331861;159;856443;-63
2021/09/18 05:18:11;;;;;;;17.94;12.44;;;;;;;;;;332404;159;857228;-64
2021/09/18 05:19:13;;;;;;;19.07;12.16;;;;;;;;;;331340;159;856587;-62
2021/09/18 05:20:15;;;;;;;17.09;12.03;;;;;;;;;;331868;160;856415;-59
2021/09/18 05:21:16;;;;;;;18.30;12.05;;;;;;;;;;333015;160;856523;-65
2021/09/18 05:22:18;;;;;;;18.01;11.79;;;;;;;;;;331799;156;858880;-62
2021/09/18 05:23:19;;;;;;;18.89;12.61;;;;;;;;;;330819;160;858718;-63
2021/09/18 05:24:21;;;;;;;15.46;11.05;;;;;;;;;;332104;159;858153;-60
2021/09/18 05:25:23;;;;;;;19.56;10.89;;;;;;;;;;325957;161;857229;-62
2021/09/18 05:26:26;;;;;;;18.81;11.65;;;;;;;;;;332475;158;864968;-67
2021/09/18 05:27:27;;;;;;;18.23;11.59;;;;;;;;;;331491;159;859342;-66
2021/09/18 05:28:29;;;;;;;16.19;12.00;;;;;;;;;;332549;159;857458;-64
2021/09/18 05:29:31;;;;;;;16.88;11.98;;;;;;;;;;331988;161;865920;-66
2021/09/18 05:30:33;;;;;;;19.07;12.07;;;;;;;;;;331189;159;856746;-65
2021/09/18 05:31:34;;;;;;;17.13;11.50;;;;;;;;;;333285;160;856709;-62
2021/09/18 05:32:36;;;;;;;23.12;13.20;;;;;;;-147.14;100.00;112913.77;325980;161;864055;-64
2021/09/18 05:33:38;;;;;;;15.29;9.63;;;;;;;;;;317488;167;856672;-64
2021/09/18 05:34:40;;;;;;;13.58;9.29;;;;;;;;;;328998;160;856404;-65
2021/09/18 05:35:41;;;;;;;17.40;10.21;;;;;;;;;;333024;160;859215;-61
2021/09/18 05:36:43;;;;;;;20.51;10.18;;;;;;;;;;331721;162;865875;-58
2021/09/18 05:37:45;;;;;;;16.77;11.51;;;;;;;;;;332185;160;858290;-59
2021/09/18 05:38:46;;;;;;;20.24;11.18;;;;;;;;;;331940;159;857400;-60
2021/09/18 05:39:48;;;;;;;24.74;11.74;;;;;;;;;;332552;159;859499;-59
2021/09/18 05:40:50;;;;;;;16.51;11.34;;;;;;;;;;328743;159;857425;-59
2021/09/18 05:41:52;;;;;;;18.23;11.40;;;;;;;;;;332182;159;857086;-60
2021/09/18 05:42:53;;;;;;;14.79;10.59;;;;;;;;;;333454;159;857311;-59
2021/09/18 05:43:55;;;;;;;16.61;11.16;;;;;;;;;;332521;159;857361;-59
2021/09/18 05:44:56;;;;;;;17.27;11.72;;;;;;;;;;334066;156;857852;-60
2021/09/18 05:45:58;;;;;;;18.09;11.33;;;;;;;;;;332407;161;857350;-60
2021/09/18 05:47:00;;;;;;;21.67;11.00;;;;;;;;;;332981;159;857423;-60
2021/09/18 05:48:04;;;;;;;20.33;11.09;;;;;;;;;;332603;157;857376;-59
2021/09/18 05:49:05;;;;;;;16.16;11.19;;;;;;;;;;330838;159;859261;-60
2021/09/18 05:50:07;;;;;;;14.81;8.95;;;;;;;;;;332711;159;857561;-59
2021/09/18 05:51:09;;;;;;;19.89;9.84;;;;;;;;;;331492;159;857444;-62
2021/09/18 05:52:10;;;;;;;14.27;9.61;;;;;;;;;;331353;159;866249;-62
2021/09/18 05:53:13;;;;;;;14.78;9.64;;;;;;;;;;325283;162;859685;-61
2021/09/18 05:54:15;;;;;;;15.89;9.73;;;;;;;;;;331355;159;857700;-61
2021/09/18 05:55:17;;;;;;;15.28;8.59;;;;;;;;;;331799;159;859854;-60
2021/09/18 05:56:19;;;;;;;23.16;10.81;;;;;;;;;;330972;159;857390;-59
2021/09/18 05:57:20;;;;;;;20.30;11.86;;;;;;;;;;332515;160;857162;-62
2021/09/18 05:58:22;;;;;;;15.99;10.58;;;;;;;;;;331843;161;857887;-61
2021/09/18 05:59:23;;;;;;;17.84;10.25;;;;;;;;;;332240;159;857771;-62
2021/09/18 06:00:26;;;;;;;12.77;8.85;;;;;;;;;;333113;159;857758;-61
2021/09/18 06:01:28;;;;;;;15.84;9.94;;;;;;;;;;334962;159;857278;-62
2021/09/18 06:02:29;;;;;;;20.27;11.16;;;;;;;;;;331515;160;865140;-60
2021/09/18 06:03:31;;;;;;;16.42;11.12;;;;;;;;;;331433;159;858869;-62
2021/09/18 06:04:32;;;;;;;16.54;10.21;;;;;;;;;;332869;159;857720;-63
2021/09/18 06:05:34;;;;;;;15.89;11.06;;;;;;;;;;331845;160;857231;-62
2021/09/18 06:06:36;;;;;;;20.35;11.15;;;;;;;;;;332080;159;857345;-60
2021/09/18 06:07:38;;;;;;;13.81;10.50;;;;;;;;;;333263;159;857384;-62
2021/09/18 06:08:39;;;;;;;20.32;9.53;;;;;;;;;;334341;159;859075;-60